Time;durP1;ratioP1;P1;durP2;ratioP2;P2;SDS_P1;SDS_P2;PMS_P1;PMS_P2;Temp;Humidity;BMP_temperature;BMP_pressure;BME280_temperature;BME280_humidity;BME280_pressure;Samples;Min_cycle;Max_cycle;Signal;HPM_P1;HPM_P2
2024/02/09 00:00:18;;;;;;;9.73;4.90;;;;;;;4.95;59.28;94094.41;4982246;28;20046;-74
2024/02/09 00:02:44;;;;;;;18.30;7.65;;;;;;;4.90;60.03;94091.31;4989239;28;20035;-75
2024/02/09 00:05:14;;;;;;;13.77;9.52;;;;;;;4.76;61.19;94094.06;4985411;28;20057;-74
2024/02/09 00:07:40;;;;;;;12.55;6.90;;;;;;;4.68;60.97;94089.47;4988192;28;20038;-74
2024/02/09 00:10:06;;;;;;;10.57;5.65;;;;;;;4.55;60.81;94075.84;4966393;28;20428;-74
2024/02/09 00:12:34;;;;;;;9.48;5.13;;;;;;;4.63;60.82;94089.00;4964614;28;20031;-75
2024/02/09 00:15:00;;;;;;;9.93;5.47;;;;;;;4.58;60.61;94085.91;4986867;28;20034;-74
2024/02/09 00:17:25;;;;;;;10.98;5.97;;;;;;;4.59;60.58;94087.56;4986751;28;20018;-75
2024/02/09 00:19:51;;;;;;;9.88;5.32;;;;;;;4.61;60.89;94090.84;4955728;28;20034;-74
2024/02/09 00:22:16;;;;;;;17.58;8.98;;;;;;;4.45;61.43;94075.66;4984239;28;20038;-74
2024/02/09 00:24:42;;;;;;;14.55;7.15;;;;;;;4.48;61.65;94096.03;4971762;28;20467;-74
2024/02/09 00:27:11;;;;;;;9.73;5.85;;;;;;;4.35;61.40;94097.84;4987962;28;20045;-74
2024/02/09 00:29:37;;;;;;;10.85;6.45;;;;;;;4.04;61.50;94061.41;4985124;28;20045;-74
2024/02/09 00:32:04;;;;;;;12.90;5.75;;;;;;;4.31;61.51;94097.19;4972477;28;20034;-74
2024/02/09 00:34:33;;;;;;;10.38;6.22;;;;;;;4.37;61.80;94095.94;4978092;28;20065;-74
2024/02/09 00:37:00;;;;;;;9.35;5.65;;;;;;;4.37;61.78;94098.53;5013036;28;20057;-75
2024/02/09 00:39:25;;;;;;;8.38;5.20;;;;;;;4.22;61.70;94077.28;5014213;28;20103;-74
2024/02/09 00:41:51;;;;;;;11.38;5.05;;;;;;;4.27;62.17;94095.78;5031360;28;20389;-74
2024/02/09 00:44:17;;;;;;;7.63;5.10;;;;;;;4.41;61.79;94090.50;5031795;28;20038;-74
2024/02/09 00:46:43;;;;;;;10.00;5.25;;;;;;;4.27;61.98;94098.34;5030065;28;20095;-74
2024/02/09 00:49:09;;;;;;;10.13;5.80;;;;;;;4.16;62.37;94080.28;4997555;28;20037;-74
2024/02/09 00:51:35;;;;;;;12.25;5.82;;;;;;;4.10;62.78;94086.69;5014116;28;20025;-74
2024/02/09 00:54:01;;;;;;;13.20;6.68;;;;;;;4.14;62.45;94082.13;4993054;28;20034;-74
2024/02/09 00:56:27;;;;;;;13.43;6.13;;;;;;;4.28;62.17;94094.84;5011820;28;20539;-74
2024/02/09 00:58:54;;;;;;;11.10;6.32;;;;;;;4.24;62.17;94096.00;4977397;28;20475;-73
2024/02/09 01:01:20;;;;;;;9.30;6.07;;;;;;;4.24;62.08;94094.25;4993552;28;20045;-74
2024/02/09 01:03:45;;;;;;;10.40;5.78;;;;;;;4.15;62.46;94076.91;5002745;28;20029;-74
2024/02/09 01:06:11;;;;;;;12.18;5.70;;;;;;;4.17;62.45;94080.16;5031655;28;20384;-74
2024/02/09 01:08:36;;;;;;;9.65;5.63;;;;;;;4.20;62.46;94077.38;5013753;28;20384;-74
2024/02/09 01:11:01;;;;;;;9.65;5.85;;;;;;;4.10;63.18;94091.81;5013708;28;20101;-74
2024/02/09 02:46:19;;;;;;;11.88;5.78;;;;;;;2.58;68.20;94098.41;5019700;28;20032;-75
2024/02/09 03:05:14;;;;;;;9.20;5.78;;;;;;;2.72;69.72;94106.06;5014282;28;20092;-74
2024/02/09 03:07:41;;;;;;;10.18;6.38;;;;;;;2.53;70.63;94113.25;5013809;28;20037;-74
2024/02/09 03:10:07;;;;;;;13.20;7.13;;;;;;;2.52;70.16;94115.00;5001419;28;20038;-75
2024/02/09 03:12:32;;;;;;;11.27;6.53;;;;;;;2.64;69.00;94101.41;5015762;28;20443;-74
2024/02/09 03:14:59;;;;;;;11.80;6.03;;;;;;;2.90;68.27;94114.34;5033527;28;20038;-75
2024/02/09 03:17:26;;;;;;;11.25;6.05;;;;;;;2.69;68.04;94107.06;5016091;28;20025;-75
2024/02/09 03:19:51;;;;;;;12.60;5.82;;;;;;;2.37;69.58;94108.28;5014463;28;20037;-74
2024/02/09 03:22:17;;;;;;;11.50;6.00;;;;;;;2.19;70.24;94135.84;4999877;28;20053;-75
2024/02/09 03:24:43;;;;;;;9.23;5.80;;;;;;;2.52;69.20;94129.56;5013613;28;20474;-74
2024/02/09 03:27:08;;;;;;;12.13;8.10;;;;;;;2.50;70.36;94127.09;5013563;28;20500;-75
2024/02/09 03:29:33;;;;;;;7.50;5.65;;;;;;;2.35;70.40;94135.75;5028560;28;20044;-74
2024/02/09 03:31:59;;;;;;;9.18;5.40;;;;;;;2.33;70.71;94143.50;4999011;28;20032;-74
2024/02/09 03:34:25;;;;;;;9.80;5.85;;;;;;;2.27;70.41;94136.22;5032685;28;20030;-75
2024/02/09 03:36:54;;;;;;;11.70;5.43;;;;;;;2.20;71.30;94128.09;5031364;28;20022;-74
2024/02/09 03:39:21;;;;;;;11.40;5.38;;;;;;;2.31;71.55;94135.09;4999348;28;20545;-75
2024/02/09 03:41:46;;;;;;;12.00;5.97;;;;;;;2.35;70.86;94107.56;4999134;28;20040;-75
2024/02/09 03:44:12;;;;;;;7.82;5.15;;;;;;;2.62;69.72;94130.66;4982389;28;20037;-74
2024/02/09 03:46:37;;;;;;;11.90;5.63;;;;;;;2.57;70.10;94138.63;5013346;28;20025;-74
2024/02/09 03:49:04;;;;;;;10.65;5.78;;;;;;;2.60;69.99;94141.00;5014208;28;20466;-74
2024/02/09 03:51:30;;;;;;;8.25;5.57;;;;;;;2.58;69.66;94124.88;5013911;28;20037;-75
2024/02/09 03:53:55;;;;;;;9.93;5.93;;;;;;;2.45;70.04;94124.00;4982037;28;20029;-74
2024/02/09 03:56:20;;;;;;;8.85;5.40;;;;;;;2.53;69.84;94129.47;5032504;28;20048;-74
2024/02/09 03:58:46;;;;;;;13.15;5.82;;;;;;;2.71;69.10;94136.94;4998234;28;20067;-74
2024/02/09 04:01:12;;;;;;;9.10;5.43;;;;;;;2.69;68.82;94145.53;5014721;28;20029;-74
2024/02/09 04:03:37;;;;;;;11.07;5.95;;;;;;;2.49;69.66;94138.28;5032105;28;20026;-74
2024/02/09 04:06:03;;;;;;;10.57;5.78;;;;;;;2.53;69.33;94138.91;4998463;28;20114;-74
2024/02/09 04:08:28;;;;;;;9.95;5.03;;;;;;;2.41;69.07;94140.50;5014822;28;20055;-75
2024/02/09 04:10:54;;;;;;;7.40;5.07;;;;;;;2.43;69.17;94161.75;5014623;28;20034;-75
2024/02/09 04:13:19;;;;;;;10.18;5.50;;;;;;;2.31;69.34;94149.66;5013635;28;20021;-74
2024/02/09 04:15:46;;;;;;;10.40;6.13;;;;;;;2.23;69.46;94166.34;5031962;28;20044;-74
2024/02/09 04:18:12;;;;;;;10.45;6.13;;;;;;;2.27;71.14;94172.09;4998162;28;20415;-74
2024/02/09 04:20:37;;;;;;;10.73;5.50;;;;;;;2.24;70.89;94177.41;5012094;28;20037;-74
2024/02/09 04:23:03;;;;;;;10.13;5.85;;;;;;;2.27;70.91;94179.78;5010923;28;20496;-74
2024/02/09 04:25:28;;;;;;;8.25;5.60;;;;;;;2.28;70.91;94189.09;5011073;28;20057;-74
2024/02/09 04:27:54;;;;;;;8.85;5.70;;;;;;;2.35;71.33;94189.56;5012054;28;20026;-75
2024/02/09 04:30:21;;;;;;;8.82;5.00;;;;;;;2.56;70.27;94193.38;4994446;28;20456;-74
2024/02/09 04:32:46;;;;;;;9.45;5.75;;;;;;;2.52;70.19;94184.25;4994337;28;20117;-74
2024/02/09 04:35:14;;;;;;;9.65;5.60;;;;;;;2.48;69.91;94185.34;4994236;28;20066;-75
2024/02/09 04:37:39;;;;;;;9.80;5.68;;;;;;;2.45;69.85;94168.41;5011931;28;20489;-75
2024/02/09 04:40:06;;;;;;;9.85;4.97;;;;;;;2.56;69.64;94187.44;4994226;28;20056;-75
2024/02/09 04:42:32;;;;;;;8.15;5.20;;;;;;;2.74;69.42;94186.31;4994376;28;20096;-74
2024/02/09 04:44:57;;;;;;;10.57;6.20;;;;;;;2.62;68.68;94172.50;5018825;28;20496;-74
2024/02/09 04:47:22;;;;;;;10.18;4.93;;;;;;;2.77;68.71;94183.53;5016231;28;20030;-75
2024/02/09 04:49:49;;;;;;;14.55;8.50;;;;;;;2.83;67.57;94192.59;5028736;28;20053;-74
2024/02/09 04:52:15;;;;;;;14.95;8.98;;;;;;;2.62;68.72;94198.16;5028118;28;20030;-74
2024/02/09 04:54:40;;;;;;;12.27;9.00;;;;;;;2.24;70.09;94218.41;5010485;28;20076;-75
2024/02/09 04:57:07;;;;;;;10.93;6.60;;;;;;;2.42;69.88;94219.03;5009899;28;20041;-74
2024/02/09 04:59:33;;;;;;;13.68;7.70;;;;;;;2.40;69.83;94214.03;5023848;28;20026;-74
2024/02/09 05:01:58;;;;;;;12.20;7.20;;;;;;;2.06;70.71;94199.81;5010574;28;20068;-74
2024/02/09 05:04:24;;;;;;;15.88;8.10;;;;;;;1.83;71.70;94208.03;5008538;28;20041;-74
2024/02/09 05:06:50;;;;;;;8.52;5.85;;;;;;;2.04;70.80;94206.78;5006802;28;20538;-74
2024/02/09 05:09:18;;;;;;;12.65;6.80;;;;;;;1.88;70.85;94206.84;5029013;28;20547;-74
2024/02/09 05:11:43;;;;;;;11.13;6.28;;;;;;;1.97;70.54;94201.19;4993977;28;20087;-74
2024/02/09 05:14:09;;;;;;;10.30;5.57;;;;;;;1.83;71.26;94201.19;5024143;28;20045;-73
2024/02/09 05:16:36;;;;;;;11.80;5.53;;;;;;;1.79;71.12;94197.97;5002978;28;20029;-74
2024/02/09 05:19:02;;;;;;;7.82;4.80;;;;;;;1.73;72.21;94206.03;5003134;28;20044;-74
2024/02/09 05:21:28;;;;;;;9.93;5.85;;;;;;;1.53;72.27;94211.44;5002092;28;20479;-74
2024/02/09 05:23:54;;;;;;;9.93;5.30;;;;;;;1.45;73.22;94196.53;5003344;28;20053;-74
2024/02/09 05:26:19;;;;;;;8.93;5.60;;;;;;;1.71;73.83;94194.22;4984064;28;20069;-74
2024/02/09 05:28:46;;;;;;;10.63;5.18;;;;;;;1.72;73.53;94206.91;5013218;28;20022;-74
2024/02/09 05:31:16;;;;;;;8.55;5.28;;;;;;;1.87;73.66;94196.72;5010884;28;20558;-74
2024/02/09 05:33:42;;;;;;;9.88;5.57;;;;;;;1.86;73.89;94180.50;5029012;28;20025;-74
2024/02/09 05:36:17;;;;;;;7.82;5.18;;;;;;;2.05;73.58;94192.22;5012749;28;20141;-74
2024/02/09 05:38:42;;;;;;;9.52;5.13;;;;;;;2.08;72.30;94202.31;4991227;28;20053;-74
2024/02/09 05:41:08;;;;;;;9.82;5.38;;;;;;;2.00;72.91;94190.75;4995235;28;20488;-74
2024/02/09 05:43:35;;;;;;;9.77;5.38;;;;;;;1.98;73.19;94176.41;5018322;28;20021;-75
2024/02/09 05:46:01;;;;;;;8.90;5.38;;;;;;;1.90;74.33;94170.91;5016570;28;20040;-74
2024/02/09 05:48:26;;;;;;;9.82;5.80;;;;;;;1.96;74.44;94173.13;5011848;28;20029;-75
2024/02/09 05:50:51;;;;;;;10.90;5.70;;;;;;;2.18;74.12;94175.22;5018558;28;20511;-74
2024/02/09 05:53:17;;;;;;;13.70;5.82;;;;;;;2.24;72.35;94162.03;5015141;28;20033;-73
2024/02/09 05:55:45;;;;;;;8.15;5.45;;;;;;;2.17;72.25;94163.31;5004225;28;20049;-77
2024/02/09 05:58:10;;;;;;;8.95;5.43;;;;;;;2.18;71.51;94147.03;4989137;28;20030;-77
2024/02/09 06:00:35;;;;;;;11.10;5.63;;;;;;;2.04;72.25;94152.97;4995708;28;20088;-74
2024/02/09 06:03:02;;;;;;;10.77;4.97;;;;;;;1.94;73.11;94162.13;4991298;28;20025;-73
2024/02/09 06:05:28;;;;;;;10.80;5.60;;;;;;;2.12;72.91;94157.66;4999791;28;20095;-74
2024/02/09 06:07:54;;;;;;;16.95;11.00;;;;;;;2.03;72.48;94153.06;5019512;28;20029;-74
2024/02/09 06:10:19;;;;;;;16.33;9.20;;;;;;;1.79;73.58;94169.81;5011874;28;20034;-74
2024/02/09 06:12:45;;;;;;;11.27;5.75;;;;;;;2.02;73.04;94162.50;5009191;28;20034;-73
2024/02/09 06:15:10;;;;;;;10.80;6.32;;;;;;;1.89;72.99;94135.94;4997777;28;20026;-74
2024/02/09 06:17:38;;;;;;;9.32;5.95;;;;;;;1.97;73.11;94165.31;5026373;28;20480;-74
2024/02/09 06:20:08;;;;;;;16.70;10.55;;;;;;;2.09;72.19;94166.34;4979580;28;20072;-73
2024/02/09 06:22:34;;;;;;;11.27;7.38;;;;;;;2.25;72.46;94194.41;5027653;28;20459;-74
2024/02/09 06:25:00;;;;;;;10.23;5.85;;;;;;;2.28;72.88;94193.41;5010005;28;20037;-74
2024/02/09 06:27:26;;;;;;;12.95;7.32;;;;;;;2.30;71.82;94187.28;4993734;28;20415;-74
2024/02/09 06:29:54;;;;;;;13.95;8.63;;;;;;;2.14;72.41;94164.31;4990960;28;20075;-74
2024/02/09 06:32:19;;;;;;;13.80;8.80;;;;;;;2.21;73.68;94183.53;5024120;28;20026;-74
2024/02/09 06:34:45;;;;;;;12.18;7.28;;;;;;;2.19;74.45;94195.63;5014613;28;20119;-73
2024/02/09 06:37:10;;;;;;;18.60;11.13;;;;;;;2.44;72.91;94192.41;4999217;28;20104;-73
2024/02/09 06:39:36;;;;;;;17.80;10.23;;;;;;;2.42;72.69;94181.44;5023581;28;20065;-73
2024/02/09 06:42:01;;;;;;;18.00;11.50;;;;;;;2.45;73.30;94190.66;5012973;28;20029;-74
2024/02/09 06:44:27;;;;;;;10.80;6.57;;;;;;;2.62;72.39;94187.06;5030846;28;20029;-73
2024/02/09 06:46:54;;;;;;;7.88;5.18;;;;;;;2.73;71.47;94215.44;5014296;28;20219;-73
2024/02/09 06:49:20;;;;;;;7.45;4.43;;;;;;;2.59;71.47;94203.47;5029945;28;20025;-74
2024/02/09 06:51:45;;;;;;;10.63;4.57;;;;;;;2.39;70.98;94147.44;5010636;28;20072;-74
2024/02/09 06:54:11;;;;;;;8.25;5.28;;;;;;;2.64;71.78;94201.44;5013322;28;20095;-73
2024/02/09 06:56:36;;;;;;;11.27;5.25;;;;;;;2.82;71.46;94208.94;4995313;28;20483;-73
2024/02/09 06:59:04;;;;;;;8.80;5.05;;;;;;;2.65;71.36;94202.28;5014369;28;21072;-73
2024/02/09 07:01:31;;;;;;;10.05;5.25;;;;;;;2.82;70.81;94214.06;4994676;28;20037;-74
2024/02/09 07:03:57;;;;;;;9.38;4.65;;;;;;;2.84;70.85;94209.63;5012149;28;20097;-73
2024/02/09 07:06:23;;;;;;;10.10;5.05;;;;;;;2.67;70.67;94188.44;5015138;28;20132;-74
2024/02/09 07:08:53;;;;;;;8.80;5.75;;;;;;;2.90;70.82;94204.13;5011547;28;20029;-73
2024/02/09 07:11:18;;;;;;;9.73;5.40;;;;;;;2.75;70.78;94198.19;5030148;28;20034;-73
2024/02/09 07:13:44;;;;;;;10.38;5.07;;;;;;;3.07;70.43;94209.03;5011048;28;20040;-74
2024/02/09 07:16:09;;;;;;;7.80;4.93;;;;;;;3.19;70.26;94197.16;5000147;28;20033;-74
2024/02/09 07:18:39;;;;;;;14.15;6.00;;;;;;;3.84;69.18;94218.66;5016469;28;20029;-74
2024/02/09 07:21:14;;;;;;;11.40;5.75;;;;;;;3.80;68.75;94221.44;5010044;28;20049;-75
2024/02/09 07:23:40;;;;;;;11.77;7.03;;;;;;;3.97;68.68;94228.03;5015569;28;20040;-74
2024/02/09 07:26:09;;;;;;;14.18;7.50;;;;;;;4.41;67.31;94239.66;4993758;28;20119;-76
2024/02/09 07:28:34;;;;;;;12.05;6.53;;;;;;;4.85;66.02;94238.38;4992619;28;20029;-73
2024/02/09 07:31:00;;;;;;;17.88;8.45;;;;;;;5.08;65.18;94228.22;4995579;28;20040;-72
2024/02/09 07:33:25;;;;;;;16.30;10.90;;;;;;;4.91;65.15;94217.34;5008374;28;20064;-73
2024/02/09 07:35:51;;;;;;;17.67;10.73;;;;;;;5.44;64.50;94211.09;5015862;28;20233;-79
2024/02/09 07:38:19;;;;;;;16.10;9.13;;;;;;;6.22;62.21;94179.56;5002549;28;20574;-73
2024/02/09 07:40:44;;;;;;;17.95;9.50;;;;;;;7.17;58.60;94208.34;5014257;28;20033;-77
2024/02/09 07:43:09;;;;;;;17.77;10.27;;;;;;;7.61;57.43;94207.38;5026067;28;20022;-75
2024/02/09 07:45:36;;;;;;;17.70;10.38;;;;;;;8.83;54.66;94215.44;5015049;28;20051;-76
2024/02/09 07:48:02;;;;;;;12.93;7.75;;;;;;;10.44;50.94;94215.03;5010891;28;20080;-76
2024/02/09 07:50:27;;;;;;;13.23;8.52;;;;;;;12.12;47.65;94202.59;4997597;28;20450;-76
2024/02/09 07:52:53;;;;;;;15.18;8.95;;;;;;;13.40;43.73;94191.41;5004519;28;20045;-75
2024/02/09 07:55:21;;;;;;;15.73;10.25;;;;;;;14.58;40.04;94192.94;5018107;28;20084;-74
2024/02/09 07:57:47;;;;;;;20.45;14.27;;;;;;;15.41;38.02;94197.72;4995516;28;20025;-74
2024/02/09 08:00:17;;;;;;;13.90;10.40;;;;;;;15.11;39.15;94194.91;5030979;28;20033;-76
2024/02/09 08:02:42;;;;;;;16.63;10.48;;;;;;;15.51;38.28;94185.22;5010106;28;20116;-76
2024/02/09 08:05:08;;;;;;;18.67;12.05;;;;;;;16.28;36.14;94197.50;5029230;28;20555;-76
2024/02/09 08:07:36;;;;;;;28.17;16.13;;;;;;;14.78;38.18;94157.59;5007245;28;20022;-77
2024/02/09 08:10:03;;;;;;;31.25;18.33;;;;;;;14.71;39.11;94188.81;4997194;28;20033;-76
2024/02/09 08:12:28;;;;;;;22.63;12.20;;;;;;;13.37;41.21;94180.44;4977756;28;20033;-77
2024/02/09 08:14:56;;;;;;;37.60;19.35;;;;;;;12.12;44.04;94176.56;5014589;28;20037;-78
2024/02/09 08:17:21;;;;;;;16.15;10.20;;;;;;;11.47;45.72;94178.56;5030611;28;20117;-76
2024/02/09 08:19:46;;;;;;;27.55;13.02;;;;;;;11.30;46.50;94170.59;5012918;28;20503;-79
2024/02/09 08:22:12;;;;;;;14.85;9.65;;;;;;;12.21;44.76;94180.03;5009643;28;20204;-77
2024/02/09 08:24:38;;;;;;;14.57;8.90;;;;;;;12.01;44.50;94166.41;5031928;28;20033;-75
2024/02/09 08:27:04;;;;;;;29.83;15.65;;;;;;;10.73;47.81;94175.97;5013335;28;20037;-75
2024/02/09 08:29:29;;;;;;;57.22;26.90;;;;;;;9.81;50.07;94183.56;4977800;28;20179;-77
2024/02/09 08:31:55;;;;;;;165.20;71.38;;;;;;;9.55;51.16;94180.69;5000685;28;20032;-74
2024/02/09 08:34:20;;;;;;;25.25;15.23;;;;;;;9.10;52.60;94174.22;5029856;28;20062;-73
2024/02/09 08:36:46;;;;;;;32.10;20.48;;;;;;;9.70;51.35;94175.94;5013801;28;20037;-74
2024/02/09 08:39:11;;;;;;;20.17;12.95;;;;;;;9.57;51.58;94158.03;5011922;28;20028;-71
2024/02/09 08:41:36;;;;;;;21.08;13.20;;;;;;;8.98;52.97;94156.34;4993659;28;20045;-72
2024/02/09 08:44:02;;;;;;;20.65;12.98;;;;;;;8.94;53.23;94135.03;5010928;28;20032;-74
2024/02/09 08:46:27;;;;;;;14.35;8.30;;;;;;;9.34;52.44;94147.94;4995649;28;20071;-73
2024/02/09 08:48:53;;;;;;;19.77;10.32;;;;;;;9.12;52.82;94128.28;5001196;28;20053;-75
2024/02/09 08:51:19;;;;;;;13.73;8.38;;;;;;;9.34;52.32;94118.59;4992691;28;20029;-74
2024/02/09 08:53:44;;;;;;;12.85;7.10;;;;;;;9.62;51.88;94148.06;4979756;28;20036;-75
2024/02/09 08:56:10;;;;;;;11.02;7.85;;;;;;;9.23;52.50;94135.09;5013250;28;20091;-75
2024/02/09 08:58:36;;;;;;;14.35;8.75;;;;;;;9.15;53.00;94142.72;4992091;28;20034;-75
2024/02/09 09:01:01;;;;;;;15.23;8.43;;;;;;;9.07;53.49;94134.81;4997834;28;20484;-76
2024/02/09 09:03:27;;;;;;;13.48;8.23;;;;;;;9.42;52.13;94144.66;5021342;28;20026;-76
2024/02/09 09:05:53;;;;;;;11.35;6.70;;;;;;;9.26;52.65;94128.84;5029337;28;20037;-77
2024/02/09 09:08:19;;;;;;;10.65;6.82;;;;;;;9.22;52.64;94133.47;4996202;28;20036;-75
2024/02/09 09:10:44;;;;;;;12.02;6.65;;;;;;;9.47;51.10;94141.66;4983518;28;20026;-76
2024/02/09 09:13:12;;;;;;;13.32;7.25;;;;;;;9.42;52.01;94125.69;4993803;28;20044;-73
2024/02/09 09:15:38;;;;;;;11.18;7.40;;;;;;;9.20;52.88;94139.75;5006193;28;20037;-75
2024/02/09 09:18:06;;;;;;;16.80;8.13;;;;;;;9.12;53.24;94143.81;5030731;28;20036;-72
2024/02/09 09:20:32;;;;;;;15.32;8.13;;;;;;;9.00;53.12;94123.34;5011250;28;20025;-75
2024/02/09 09:22:58;;;;;;;16.05;8.52;;;;;;;9.11;53.12;94126.66;5001909;28;20037;-74
2024/02/09 09:25:24;;;;;;;13.20;7.47;;;;;;;9.30;52.92;94145.75;4994259;28;20239;-74
2024/02/09 09:27:50;;;;;;;14.18;8.43;;;;;;;9.27;52.52;94144.22;4997367;28;20500;-74
2024/02/09 09:30:17;;;;;;;15.48;9.00;;;;;;;9.53;52.37;94148.91;5011817;28;20120;-74
2024/02/09 09:32:42;;;;;;;15.52;7.95;;;;;;;9.35;52.17;94135.78;5013411;28;20025;-73
2024/02/09 09:35:08;;;;;;;13.77;7.85;;;;;;;9.62;51.31;94140.28;5030430;28;20099;-73
2024/02/09 09:37:35;;;;;;;20.98;11.73;;;;;;;9.59;51.81;94145.75;5013470;28;20042;-73
2024/02/09 09:40:01;;;;;;;18.35;8.93;;;;;;;9.60;51.67;94137.81;5030895;28;20409;-73
2024/02/09 09:42:26;;;;;;;12.13;7.88;;;;;;;9.77;51.12;94117.34;5012927;28;20036;-74
2024/02/09 09:44:53;;;;;;;12.27;7.68;;;;;;;9.64;51.50;94117.66;5012982;28;20021;-73
2024/02/09 09:47:19;;;;;;;11.38;7.30;;;;;;;9.83;51.15;94112.44;5029322;28;20034;-73
2024/02/09 09:49:45;;;;;;;16.25;7.30;;;;;;;9.84;51.04;94115.84;4969254;28;20554;-71
2024/02/09 09:52:14;;;;;;;12.68;8.75;;;;;;;10.01;50.58;94109.09;5010375;28;20033;-72
2024/02/09 09:54:40;;;;;;;9.93;6.00;;;;;;;9.91;51.14;94108.31;4978483;28;20129;-72
2024/02/09 09:57:05;;;;;;;11.85;6.10;;;;;;;9.94;50.71;94098.44;5012093;28;20431;-72
2024/02/09 09:59:31;;;;;;;14.63;6.70;;;;;;;9.93;50.92;94104.59;5000157;28;20018;-71
2024/02/09 10:01:57;;;;;;;11.90;6.25;;;;;;;10.09;49.97;94111.81;5003944;28;20044;-74
2024/02/09 10:04:23;;;;;;;13.90;7.05;;;;;;;10.00;50.98;94100.50;5031318;28;20029;-72
2024/02/09 10:06:49;;;;;;;11.70;6.68;;;;;;;10.22;50.15;94103.69;5031759;28;20102;-74
2024/02/09 10:09:16;;;;;;;14.55;7.15;;;;;;;10.42;50.28;94094.09;5008933;28;20038;-72
2024/02/09 10:11:44;;;;;;;13.35;6.90;;;;;;;10.02;50.77;94062.25;5021821;28;20064;-73
2024/02/09 10:14:14;;;;;;;12.45;6.47;;;;;;;10.38;49.86;94074.56;5000060;28;20048;-72
2024/02/09 10:16:49;;;;;;;10.63;5.95;;;;;;;10.28;50.36;94079.81;5027892;28;20065;-72
2024/02/09 10:19:16;;;;;;;12.80;6.00;;;;;;;10.14;50.58;94070.69;5015779;28;20034;-72
2024/02/09 10:21:42;;;;;;;12.38;6.75;;;;;;;10.04;50.77;94062.13;4997850;28;20262;-74
2024/02/09 10:24:09;;;;;;;10.32;6.65;;;;;;;10.14;51.02;94057.72;4994440;28;20109;-74
2024/02/09 10:26:36;;;;;;;12.77;6.85;;;;;;;10.21;50.95;94053.56;5003517;28;20040;-73
2024/02/09 10:29:03;;;;;;;9.98;6.30;;;;;;;10.40;50.53;94055.31;5013802;28;20434;-74
2024/02/09 10:31:30;;;;;;;9.50;5.60;;;;;;;10.72;49.34;94041.84;5007739;28;20041;-74
2024/02/09 10:33:58;;;;;;;11.18;5.70;;;;;;;11.11;48.50;94043.34;5031275;28;20050;-74
2024/02/09 10:36:24;;;;;;;9.15;5.30;;;;;;;11.16;48.46;94028.13;4969771;28;20065;-73
2024/02/09 10:38:50;;;;;;;12.93;6.05;;;;;;;11.12;48.38;94011.22;4990756;28;20034;-74
2024/02/09 10:41:16;;;;;;;8.02;5.78;;;;;;;11.09;48.29;94020.13;4976374;28;20507;-74
2024/02/09 10:43:42;;;;;;;7.97;5.20;;;;;;;11.22;47.98;94021.53;4993749;28;20027;-75
2024/02/09 10:46:07;;;;;;;9.30;5.30;;;;;;;11.54;46.77;93993.16;4960900;28;20041;-74
2024/02/09 10:48:37;;;;;;;10.50;4.95;;;;;;;11.55;46.18;93997.38;4992499;28;20037;-74
2024/02/09 10:51:05;;;;;;;10.18;4.85;;;;;;;11.61;45.77;93991.56;4992522;28;20332;-74
2024/02/09 10:53:32;;;;;;;6.68;4.88;;;;;;;11.80;46.16;93994.94;4992427;28;20030;-73
2024/02/09 10:56:03;;;;;;;11.73;4.55;;;;;;;11.95;45.08;93996.03;4960895;28;20464;-74
2024/02/09 10:58:35;;;;;;;10.15;4.70;;;;;;;12.16;44.57;93989.63;4973511;28;20041;-73
2024/02/09 11:01:04;;;;;;;11.32;5.00;;;;;;;12.04;45.64;93971.69;4957616;28;20043;-74
2024/02/09 11:03:29;;;;;;;12.05;6.70;;;;;;;12.04;45.33;93955.25;4984130;28;20022;-74
2024/02/09 11:05:55;;;;;;;12.05;5.40;;;;;;;11.84;45.88;93954.66;4993175;28;20447;-74
2024/02/09 11:08:20;;;;;;;9.80;4.85;;;;;;;12.18;45.20;93944.22;4991952;28;20026;-74
2024/02/09 11:10:58;;;;;;;7.85;4.45;;;;;;;12.18;44.98;93925.19;4959307;28;20030;-74
2024/02/09 11:13:24;;;;;;;9.90;5.05;;;;;;;12.19;45.81;93929.41;4983206;28;20038;-74
2024/02/09 11:15:56;;;;;;;10.65;5.63;;;;;;;11.88;46.30;93916.13;4993002;28;20033;-74
2024/02/09 11:18:22;;;;;;;15.50;4.97;;;;;;;12.02;46.62;93915.53;4976454;28;20026;-74
2024/02/09 11:20:48;;;;;;;11.18;5.25;;;;;;;12.32;45.97;93903.75;4992777;28;20038;-74
2024/02/09 11:23:13;;;;;;;10.25;5.45;;;;;;;12.53;45.31;93896.28;4992500;28;20061;-74
2024/02/09 11:25:39;;;;;;;14.15;6.40;;;;;;;12.43;45.80;93893.03;4981436;28;20035;-74
2024/02/09 11:28:08;;;;;;;10.77;6.53;;;;;;;12.45;45.04;93888.47;4957043;28;20046;-74
2024/02/09 11:30:33;;;;;;;12.43;6.00;;;;;;;12.36;45.29;93867.78;4992948;28;20030;-74
2024/02/09 11:32:58;;;;;;;12.05;7.85;;;;;;;12.41;45.40;93868.91;4993683;28;20142;-73
2024/02/09 11:35:28;;;;;;;17.98;10.15;;;;;;;12.46;45.33;93866.66;5010904;28;20045;-74
2024/02/09 11:37:54;;;;;;;18.30;9.82;;;;;;;12.61;44.58;93887.66;5015949;28;20321;-74
2024/02/09 11:40:19;;;;;;;15.70;8.32;;;;;;;12.26;45.05;93900.00;4995509;28;20038;-74
2024/02/09 11:42:45;;;;;;;17.45;7.85;;;;;;;12.40;44.57;93903.75;5033843;28;20491;-74
2024/02/09 11:45:10;;;;;;;12.75;7.03;;;;;;;12.23;44.65;93908.13;5021838;28;20032;-74
2024/02/09 11:47:42;;;;;;;9.65;5.80;;;;;;;12.34;44.25;93893.16;5052717;28;20039;-74
2024/02/09 11:50:21;;;;;;;10.20;4.82;;;;;;;12.33;43.98;93915.78;5007855;28;20033;-74
2024/02/09 11:52:47;;;;;;;8.85;5.28;;;;;;;12.22;44.58;93919.50;4997163;28;20041;-74
2024/02/09 11:55:12;;;;;;;11.85;5.75;;;;;;;12.26;45.63;93939.06;5004318;28;20112;-74
2024/02/09 11:57:38;;;;;;;10.55;6.80;;;;;;;12.15;46.24;93925.50;5003246;28;20034;-74
2024/02/09 12:00:07;;;;;;;9.60;6.18;;;;;;;12.00;46.56;93931.28;5024251;28;20041;-73
2024/02/09 12:02:33;;;;;;;11.02;6.22;;;;;;;12.11;46.57;93939.81;4984300;28;20096;-69
2024/02/09 12:04:59;;;;;;;13.82;6.63;;;;;;;12.03;46.31;93917.97;5018788;28;20021;-74
2024/02/09 12:07:25;;;;;;;9.98;5.47;;;;;;;12.13;46.05;93917.03;5006367;28;20404;-73
2024/02/09 12:09:51;;;;;;;13.13;5.57;;;;;;;12.30;45.78;93903.09;5030595;28;20022;-73
2024/02/09 12:12:19;;;;;;;9.88;5.93;;;;;;;12.33;45.41;93900.16;5030631;28;20037;-73
2024/02/09 12:14:44;;;;;;;13.32;7.53;;;;;;;12.20;45.99;93899.78;4995350;28;20037;-72
2024/02/09 12:17:11;;;;;;;10.95;6.47;;;;;;;12.36;45.84;93899.84;4993725;28;20107;-71
2024/02/09 12:19:37;;;;;;;9.65;6.80;;;;;;;12.57;45.86;93906.41;4993972;28;20077;-72
2024/02/09 12:22:04;;;;;;;12.43;6.75;;;;;;;12.47;45.73;93894.31;5028972;28;20069;-74
2024/02/09 12:24:30;;;;;;;10.73;6.65;;;;;;;12.66;45.66;93901.03;5029415;28;20076;-73
2024/02/09 12:26:57;;;;;;;14.95;6.47;;;;;;;12.64;45.46;93896.94;5003453;28;20033;-72
2024/02/09 12:29:22;;;;;;;8.90;5.90;;;;;;;12.65;45.45;93898.59;4980219;28;20054;-73
2024/02/09 12:31:47;;;;;;;20.15;11.10;;;;;;;12.72;45.02;93896.97;5007932;28;20096;-73
2024/02/09 12:34:13;;;;;;;18.15;10.27;;;;;;;12.66;44.96;93880.19;4977730;28;20038;-73
2024/02/09 12:36:38;;;;;;;13.25;8.57;;;;;;;12.77;44.96;93894.69;4991930;28;20136;-73
2024/02/09 12:39:07;;;;;;;10.38;6.55;;;;;;;13.02;44.46;93897.28;4999907;28;20100;-72
2024/02/09 12:41:36;;;;;;;11.77;6.65;;;;;;;13.08;43.97;93889.63;5018299;28;20032;-72
2024/02/09 12:44:02;;;;;;;11.20;6.55;;;;;;;13.03;44.20;93883.25;5010733;28;20072;-72
2024/02/09 12:46:27;;;;;;;9.38;6.38;;;;;;;12.82;44.72;93875.97;4997643;28;20034;-73
2024/02/09 12:48:55;;;;;;;14.00;6.10;;;;;;;13.14;44.00;93888.13;4997439;28;20096;-72
2024/02/09 12:51:24;;;;;;;8.30;5.32;;;;;;;13.30;43.63;93895.97;4990873;28;20073;-71
2024/02/09 12:53:50;;;;;;;8.48;5.35;;;;;;;13.39;43.16;93884.53;4994742;28;20061;-72
2024/02/09 12:56:17;;;;;;;9.55;5.50;;;;;;;13.28;43.34;93884.88;5016713;28;20058;-73
2024/02/09 12:58:46;;;;;;;10.55;5.88;;;;;;;13.38;42.68;93879.50;5008845;28;20029;-73
2024/02/09 13:01:12;;;;;;;10.18;6.03;;;;;;;13.29;43.28;93881.31;5012696;28;20469;-73
2024/02/09 13:03:40;;;;;;;10.48;5.45;;;;;;;13.20;43.09;93869.22;5030960;28;20038;-73
2024/02/09 13:06:05;;;;;;;10.80;5.18;;;;;;;13.29;43.07;93870.88;5034073;28;20104;-73
2024/02/09 13:08:32;;;;;;;8.43;5.45;;;;;;;13.46;42.58;93871.66;5031175;28;20420;-74
2024/02/09 13:10:58;;;;;;;8.88;5.00;;;;;;;13.51;42.54;93877.19;5013401;28;20025;-73
2024/02/09 13:13:23;;;;;;;9.57;4.95;;;;;;;13.45;42.48;93871.81;4997002;28;20033;-73
2024/02/09 13:15:49;;;;;;;9.00;4.90;;;;;;;13.27;42.88;93872.84;5013054;28;20029;-73